sensor_id;sensor_type;location;lat;lon;timestamp;P1;durP1;ratioP1;P2;durP2;ratioP2
13026;SDS011;6580;42.680;23.324;2023-12-28T00:00:21;33.43;;;21.37;;
13026;SDS011;6580;42.680;23.324;2023-12-28T00:02:48;42.37;;;28.10;;
13026;SDS011;6580;42.680;23.324;2023-12-28T00:05:18;34.90;;;24.40;;
13026;SDS011;6580;42.680;23.324;2023-12-28T00:07:45;33.63;;;23.90;;
13026;SDS011;6580;42.680;23.324;2023-12-28T00:10:12;35.00;;;23.77;;
13026;SDS011;6580;42.680;23.324;2023-12-28T00:12:40;31.73;;;19.97;;
13026;SDS011;6580;42.680;23.324;2023-12-28T00:15:11;31.70;;;20.70;;
13026;SDS011;6580;42.680;23.324;2023-12-28T00:17:40;35.17;;;24.77;;
13026;SDS011;6580;42.680;23.324;2023-12-28T00:20:08;31.17;;;23.43;;
13026;SDS011;6580;42.680;23.324;2023-12-28T00:22:36;35.53;;;24.03;;
13026;SDS011;6580;42.680;23.324;2023-12-28T00:25:04;30.90;;;22.57;;
13026;SDS011;6580;42.680;23.324;2023-12-28T00:27:32;29.13;;;19.73;;
13026;SDS011;6580;42.680;23.324;2023-12-28T00:30:03;28.37;;;19.87;;
13026;SDS011;6580;42.680;23.324;2023-12-28T00:32:31;27.80;;;19.80;;
13026;SDS011;6580;42.680;23.324;2023-12-28T00:35:04;28.77;;;20.30;;
13026;SDS011;6580;42.680;23.324;2023-12-28T00:37:39;25.83;;;18.87;;
13026;SDS011;6580;42.680;23.324;2023-12-28T00:40:10;26.37;;;19.73;;
13026;SDS011;6580;42.680;23.324;2023-12-28T00:42:39;28.93;;;19.67;;
13026;SDS011;6580;42.680;23.324;2023-12-28T00:45:06;30.10;;;19.90;;
13026;SDS011;6580;42.680;23.324;2023-12-28T00:47:35;31.30;;;21.83;;
13026;SDS011;6580;42.680;23.324;2023-12-28T00:50:05;33.43;;;20.87;;
13026;SDS011;6580;42.680;23.324;2023-12-28T00:52:33;29.37;;;19.93;;
13026;SDS011;6580;42.680;23.324;2023-12-28T00:55:00;24.33;;;19.07;;
13026;SDS011;6580;42.680;23.324;2023-12-28T00:57:27;27.07;;;18.37;;
13026;SDS011;6580;42.680;23.324;2023-12-28T00:59:56;28.47;;;18.57;;
13026;SDS011;6580;42.680;23.324;2023-12-28T01:02:23;30.63;;;18.80;;
13026;SDS011;6580;42.680;23.324;2023-12-28T01:04:51;27.00;;;17.83;;
13026;SDS011;6580;42.680;23.324;2023-12-28T01:07:21;23.30;;;16.50;;
13026;SDS011;6580;42.680;23.324;2023-12-28T01:09:49;24.87;;;17.83;;
13026;SDS011;6580;42.680;23.324;2023-12-28T01:12:17;25.10;;;17.53;;
13026;SDS011;6580;42.680;23.324;2023-12-28T01:14:46;27.53;;;18.17;;
13026;SDS011;6580;42.680;23.324;2023-12-28T01:17:13;27.37;;;18.83;;
13026;SDS011;6580;42.680;23.324;2023-12-28T01:19:44;24.30;;;18.07;;
13026;SDS011;6580;42.680;23.324;2023-12-28T01:22:12;29.00;;;18.70;;
13026;SDS011;6580;42.680;23.324;2023-12-28T01:24:42;27.70;;;17.77;;
13026;SDS011;6580;42.680;23.324;2023-12-28T01:27:15;25.70;;;17.47;;
13026;SDS011;6580;42.680;23.324;2023-12-28T01:29:42;25.33;;;16.97;;
13026;SDS011;6580;42.680;23.324;2023-12-28T01:32:15;23.73;;;16.20;;
13026;SDS011;6580;42.680;23.324;2023-12-28T01:34:45;23.27;;;16.83;;
13026;SDS011;6580;42.680;23.324;2023-12-28T01:37:12;23.53;;;16.20;;
13026;SDS011;6580;42.680;23.324;2023-12-28T01:39:39;23.23;;;15.63;;
13026;SDS011;6580;42.680;23.324;2023-12-28T01:42:09;23.40;;;16.67;;
13026;SDS011;6580;42.680;23.324;2023-12-28T01:44:39;22.23;;;16.33;;
13026;SDS011;6580;42.680;23.324;2023-12-28T01:47:07;25.50;;;17.50;;
13026;SDS011;6580;42.680;23.324;2023-12-28T01:49:35;23.63;;;17.13;;
13026;SDS011;6580;42.680;23.324;2023-12-28T01:52:03;26.57;;;18.13;;
13026;SDS011;6580;42.680;23.324;2023-12-28T01:54:32;25.60;;;17.57;;
13026;SDS011;6580;42.680;23.324;2023-12-28T01:57:02;27.30;;;18.70;;
13026;SDS011;6580;42.680;23.324;2023-12-28T01:59:32;25.17;;;16.80;;
13026;SDS011;6580;42.680;23.324;2023-12-28T02:02:01;24.33;;;16.90;;
13026;SDS011;6580;42.680;23.324;2023-12-28T02:04:31;23.57;;;16.80;;
13026;SDS011;6580;42.680;23.324;2023-12-28T02:07:01;22.67;;;17.83;;
13026;SDS011;6580;42.680;23.324;2023-12-28T02:09:28;24.57;;;16.17;;
13026;SDS011;6580;42.680;23.324;2023-12-28T02:11:56;26.87;;;17.40;;
13026;SDS011;6580;42.680;23.324;2023-12-28T02:14:26;26.50;;;18.20;;
13026;SDS011;6580;42.680;23.324;2023-12-28T02:16:56;26.23;;;17.50;;
13026;SDS011;6580;42.680;23.324;2023-12-28T02:19:32;21.77;;;16.80;;
13026;SDS011;6580;42.680;23.324;2023-12-28T02:22:05;25.50;;;16.07;;
13026;SDS011;6580;42.680;23.324;2023-12-28T02:27:39;24.43;;;15.27;;
13026;SDS011;6580;42.680;23.324;2023-12-28T02:30:08;23.13;;;14.53;;
13026;SDS011;6580;42.680;23.324;2023-12-28T02:32:47;23.17;;;15.50;;
13026;SDS011;6580;42.680;23.324;2023-12-28T02:35:20;20.90;;;13.97;;
13026;SDS011;6580;42.680;23.324;2023-12-28T02:37:54;22.47;;;15.20;;
13026;SDS011;6580;42.680;23.324;2023-12-28T02:40:27;20.37;;;15.87;;
13026;SDS011;6580;42.680;23.324;2023-12-28T02:42:58;22.83;;;16.67;;
13026;SDS011;6580;42.680;23.324;2023-12-28T02:45:25;23.70;;;17.13;;
13026;SDS011;6580;42.680;23.324;2023-12-28T02:47:54;31.33;;;22.27;;
13026;SDS011;6580;42.680;23.324;2023-12-28T02:50:27;34.03;;;21.90;;
13026;SDS011;6580;42.680;23.324;2023-12-28T02:52:55;32.10;;;23.40;;
13026;SDS011;6580;42.680;23.324;2023-12-28T02:55:22;39.13;;;26.97;;
13026;SDS011;6580;42.680;23.324;2023-12-28T02:57:49;39.87;;;28.20;;
13026;SDS011;6580;42.680;23.324;2023-12-28T03:00:18;38.53;;;28.50;;
13026;SDS011;6580;42.680;23.324;2023-12-28T03:02:44;42.50;;;30.13;;
13026;SDS011;6580;42.680;23.324;2023-12-28T03:05:12;34.63;;;26.17;;
13026;SDS011;6580;42.680;23.324;2023-12-28T03:07:39;35.80;;;27.37;;
13026;SDS011;6580;42.680;23.324;2023-12-28T03:10:08;37.60;;;28.20;;
13026;SDS011;6580;42.680;23.324;2023-12-28T03:12:36;38.30;;;28.37;;
13026;SDS011;6580;42.680;23.324;2023-12-28T03:15:05;40.13;;;29.17;;
13026;SDS011;6580;42.680;23.324;2023-12-28T03:17:35;39.60;;;28.10;;
13026;SDS011;6580;42.680;23.324;2023-12-28T03:20:02;41.23;;;27.60;;
13026;SDS011;6580;42.680;23.324;2023-12-28T03:22:30;38.90;;;26.87;;
13026;SDS011;6580;42.680;23.324;2023-12-28T03:24:57;38.90;;;27.97;;
13026;SDS011;6580;42.680;23.324;2023-12-28T03:27:25;39.60;;;27.73;;
13026;SDS011;6580;42.680;23.324;2023-12-28T03:29:52;38.20;;;27.83;;
13026;SDS011;6580;42.680;23.324;2023-12-28T03:32:19;35.33;;;25.37;;
13026;SDS011;6580;42.680;23.324;2023-12-28T03:34:48;38.97;;;26.97;;
13026;SDS011;6580;42.680;23.324;2023-12-28T03:37:15;39.60;;;27.30;;
13026;SDS011;6580;42.680;23.324;2023-12-28T03:39:42;39.20;;;28.27;;
13026;SDS011;6580;42.680;23.324;2023-12-28T03:42:09;37.70;;;27.43;;
13026;SDS011;6580;42.680;23.324;2023-12-28T03:44:36;36.07;;;26.27;;
13026;SDS011;6580;42.680;23.324;2023-12-28T03:47:03;36.07;;;26.00;;
13026;SDS011;6580;42.680;23.324;2023-12-28T03:49:31;36.77;;;27.80;;
13026;SDS011;6580;42.680;23.324;2023-12-28T03:52:00;36.27;;;26.73;;
13026;SDS011;6580;42.680;23.324;2023-12-28T03:54:27;37.33;;;25.27;;
13026;SDS011;6580;42.680;23.324;2023-12-28T03:56:54;35.43;;;24.20;;
13026;SDS011;6580;42.680;23.324;2023-12-28T03:59:22;36.33;;;27.30;;
13026;SDS011;6580;42.680;23.324;2023-12-28T04:01:49;38.10;;;25.70;;
13026;SDS011;6580;42.680;23.324;2023-12-28T04:04:16;36.60;;;26.03;;
13026;SDS011;6580;42.680;23.324;2023-12-28T04:06:43;34.53;;;24.73;;
13026;SDS011;6580;42.680;23.324;2023-12-28T04:09:13;34.00;;;23.83;;
13026;SDS011;6580;42.680;23.324;2023-12-28T04:11:40;33.17;;;23.63;;
13026;SDS011;6580;42.680;23.324;2023-12-28T04:14:07;33.13;;;23.63;;
13026;SDS011;6580;42.680;23.324;2023-12-28T04:16:37;31.67;;;22.07;;
13026;SDS011;6580;42.680;23.324;2023-12-28T04:19:04;33.00;;;23.60;;
13026;SDS011;6580;42.680;23.324;2023-12-28T04:21:31;28.70;;;21.30;;
13026;SDS011;6580;42.680;23.324;2023-12-28T04:23:59;28.47;;;21.33;;
13026;SDS011;6580;42.680;23.324;2023-12-28T04:26:30;29.97;;;21.73;;
13026;SDS011;6580;42.680;23.324;2023-12-28T04:28:59;29.57;;;20.67;;
13026;SDS011;6580;42.680;23.324;2023-12-28T04:31:25;29.23;;;21.50;;
13026;SDS011;6580;42.680;23.324;2023-12-28T04:33:54;29.70;;;21.70;;
13026;SDS011;6580;42.680;23.324;2023-12-28T04:36:21;32.70;;;24.33;;
13026;SDS011;6580;42.680;23.324;2023-12-28T04:38:49;34.80;;;24.87;;
13026;SDS011;6580;42.680;23.324;2023-12-28T04:41:16;38.60;;;25.63;;
13026;SDS011;6580;42.680;23.324;2023-12-28T04:43:45;30.37;;;21.13;;
13026;SDS011;6580;42.680;23.324;2023-12-28T04:46:12;29.03;;;21.17;;
13026;SDS011;6580;42.680;23.324;2023-12-28T04:48:39;28.80;;;19.33;;
13026;SDS011;6580;42.680;23.324;2023-12-28T04:51:08;25.77;;;19.70;;
13026;SDS011;6580;42.680;23.324;2023-12-28T04:53:35;24.83;;;18.40;;
13026;SDS011;6580;42.680;23.324;2023-12-28T04:56:03;25.47;;;20.10;;
13026;SDS011;6580;42.680;23.324;2023-12-28T04:58:30;27.70;;;19.90;;
13026;SDS011;6580;42.680;23.324;2023-12-28T05:01:00;25.30;;;19.87;;
13026;SDS011;6580;42.680;23.324;2023-12-28T05:03:27;24.60;;;18.50;;
13026;SDS011;6580;42.680;23.324;2023-12-28T05:05:54;27.23;;;18.07;;
13026;SDS011;6580;42.680;23.324;2023-12-28T05:08:21;26.33;;;19.23;;
13026;SDS011;6580;42.680;23.324;2023-12-28T05:10:48;29.40;;;19.00;;
13026;SDS011;6580;42.680;23.324;2023-12-28T05:13:15;29.43;;;19.27;;
13026;SDS011;6580;42.680;23.324;2023-12-28T05:15:43;26.70;;;19.80;;
13026;SDS011;6580;42.680;23.324;2023-12-28T05:18:11;32.70;;;21.73;;
13026;SDS011;6580;42.680;23.324;2023-12-28T05:20:38;23.77;;;20.03;;
13026;SDS011;6580;42.680;23.324;2023-12-28T05:23:06;30.67;;;20.47;;
13026;SDS011;6580;42.680;23.324;2023-12-28T05:25:33;31.37;;;21.63;;
13026;SDS011;6580;42.680;23.324;2023-12-28T05:28:00;31.50;;;22.10;;
13026;SDS011;6580;42.680;23.324;2023-12-28T05:30:27;30.33;;;22.27;;
13026;SDS011;6580;42.680;23.324;2023-12-28T05:32:54;27.00;;;21.33;;
13026;SDS011;6580;42.680;23.324;2023-12-28T05:35:24;30.87;;;22.47;;
13026;SDS011;6580;42.680;23.324;2023-12-28T05:37:52;32.13;;;22.63;;
13026;SDS011;6580;42.680;23.324;2023-12-28T05:40:20;29.73;;;22.10;;
13026;SDS011;6580;42.680;23.324;2023-12-28T05:42:48;32.67;;;22.60;;
13026;SDS011;6580;42.680;23.324;2023-12-28T05:45:15;31.87;;;22.20;;
13026;SDS011;6580;42.680;23.324;2023-12-28T05:47:42;33.40;;;23.60;;
13026;SDS011;6580;42.680;23.324;2023-12-28T05:50:09;30.30;;;21.50;;
13026;SDS011;6580;42.680;23.324;2023-12-28T05:52:38;31.67;;;22.53;;
13026;SDS011;6580;42.680;23.324;2023-12-28T05:55:05;31.43;;;23.27;;
13026;SDS011;6580;42.680;23.324;2023-12-28T05:57:33;30.77;;;22.10;;
13026;SDS011;6580;42.680;23.324;2023-12-28T06:00:01;32.63;;;23.67;;
13026;SDS011;6580;42.680;23.324;2023-12-28T06:02:31;30.30;;;22.37;;
13026;SDS011;6580;42.680;23.324;2023-12-28T06:04:58;34.03;;;22.97;;
13026;SDS011;6580;42.680;23.324;2023-12-28T06:07:27;35.33;;;22.60;;
13026;SDS011;6580;42.680;23.324;2023-12-28T06:09:55;33.50;;;22.87;;
13026;SDS011;6580;42.680;23.324;2023-12-28T06:12:24;33.13;;;23.30;;
13026;SDS011;6580;42.680;23.324;2023-12-28T06:14:50;31.87;;;23.47;;
13026;SDS011;6580;42.680;23.324;2023-12-28T06:17:17;34.03;;;22.77;;
13026;SDS011;6580;42.680;23.324;2023-12-28T06:19:44;31.70;;;22.37;;
13026;SDS011;6580;42.680;23.324;2023-12-28T06:22:11;31.90;;;22.07;;
13026;SDS011;6580;42.680;23.324;2023-12-28T06:24:38;35.47;;;23.70;;
13026;SDS011;6580;42.680;23.324;2023-12-28T06:27:07;35.60;;;24.50;;
13026;SDS011;6580;42.680;23.324;2023-12-28T06:29:34;38.97;;;26.30;;
13026;SDS011;6580;42.680;23.324;2023-12-28T06:32:01;34.60;;;26.17;;
13026;SDS011;6580;42.680;23.324;2023-12-28T06:34:28;35.97;;;25.47;;
13026;SDS011;6580;42.680;23.324;2023-12-28T06:36:55;37.47;;;25.53;;
13026;SDS011;6580;42.680;23.324;2023-12-28T06:39:22;36.77;;;25.37;;
13026;SDS011;6580;42.680;23.324;2023-12-28T06:41:53;40.00;;;24.30;;
13026;SDS011;6580;42.680;23.324;2023-12-28T06:44:22;34.50;;;24.80;;
13026;SDS011;6580;42.680;23.324;2023-12-28T06:46:49;35.00;;;25.37;;
13026;SDS011;6580;42.680;23.324;2023-12-28T06:49:16;39.83;;;24.93;;
13026;SDS011;6580;42.680;23.324;2023-12-28T06:51:43;34.97;;;24.90;;
13026;SDS011;6580;42.680;23.324;2023-12-28T06:54:11;35.17;;;25.93;;
13026;SDS011;6580;42.680;23.324;2023-12-28T06:56:38;37.63;;;25.20;;
13026;SDS011;6580;42.680;23.324;2023-12-28T06:59:05;39.33;;;25.20;;
13026;SDS011;6580;42.680;23.324;2023-12-28T07:01:33;32.93;;;24.37;;
13026;SDS011;6580;42.680;23.324;2023-12-28T07:04:01;34.83;;;24.80;;
13026;SDS011;6580;42.680;23.324;2023-12-28T07:06:28;37.63;;;26.20;;
13026;SDS011;6580;42.680;23.324;2023-12-28T07:08:55;33.43;;;25.50;;
13026;SDS011;6580;42.680;23.324;2023-12-28T07:11:22;36.93;;;26.03;;
13026;SDS011;6580;42.680;23.324;2023-12-28T07:13:49;35.10;;;24.60;;
13026;SDS011;6580;42.680;23.324;2023-12-28T07:16:16;31.07;;;25.93;;
13026;SDS011;6580;42.680;23.324;2023-12-28T07:18:45;35.67;;;24.83;;
13026;SDS011;6580;42.680;23.324;2023-12-28T07:21:11;28.03;;;20.03;;
13026;SDS011;6580;42.680;23.324;2023-12-28T07:23:39;32.37;;;23.73;;
13026;SDS011;6580;42.680;23.324;2023-12-28T07:26:06;32.50;;;24.33;;
13026;SDS011;6580;42.680;23.324;2023-12-28T07:28:33;32.73;;;23.63;;
13026;SDS011;6580;42.680;23.324;2023-12-28T07:31:00;29.03;;;23.17;;
13026;SDS011;6580;42.680;23.324;2023-12-28T07:33:27;31.43;;;23.37;;
13026;SDS011;6580;42.680;23.324;2023-12-28T07:35:55;32.17;;;22.87;;
13026;SDS011;6580;42.680;23.324;2023-12-28T07:38:24;29.57;;;22.10;;
13026;SDS011;6580;42.680;23.324;2023-12-28T07:40:51;33.70;;;22.63;;
13026;SDS011;6580;42.680;23.324;2023-12-28T07:43:19;31.90;;;22.77;;
13026;SDS011;6580;42.680;23.324;2023-12-28T07:45:46;31.03;;;22.73;;
13026;SDS011;6580;42.680;23.324;2023-12-28T07:48:12;30.23;;;22.47;;
13026;SDS011;6580;42.680;23.324;2023-12-28T07:50:40;28.60;;;20.43;;
13026;SDS011;6580;42.680;23.324;2023-12-28T07:53:09;30.80;;;23.53;;
13026;SDS011;6580;42.680;23.324;2023-12-28T07:55:39;31.63;;;21.43;;
13026;SDS011;6580;42.680;23.324;2023-12-28T07:58:06;28.03;;;20.37;;
13026;SDS011;6580;42.680;23.324;2023-12-28T08:00:33;27.20;;;20.77;;
13026;SDS011;6580;42.680;23.324;2023-12-28T08:03:00;27.50;;;18.77;;
13026;SDS011;6580;42.680;23.324;2023-12-28T08:05:26;27.57;;;19.83;;
13026;SDS011;6580;42.680;23.324;2023-12-28T08:07:54;25.33;;;18.90;;
13026;SDS011;6580;42.680;23.324;2023-12-28T08:10:25;26.27;;;19.60;;
13026;SDS011;6580;42.680;23.324;2023-12-28T08:12:52;23.97;;;18.13;;
13026;SDS011;6580;42.680;23.324;2023-12-28T08:15:19;25.70;;;20.53;;
13026;SDS011;6580;42.680;23.324;2023-12-28T08:17:49;28.50;;;19.53;;
13026;SDS011;6580;42.680;23.324;2023-12-28T08:20:16;27.50;;;19.47;;
13026;SDS011;6580;42.680;23.324;2023-12-28T08:22:45;28.43;;;20.10;;
13026;SDS011;6580;42.680;23.324;2023-12-28T08:25:12;28.37;;;20.97;;
13026;SDS011;6580;42.680;23.324;2023-12-28T08:27:41;25.50;;;19.57;;
13026;SDS011;6580;42.680;23.324;2023-12-28T08:30:08;25.70;;;19.27;;
13026;SDS011;6580;42.680;23.324;2023-12-28T08:32:35;27.87;;;19.53;;
13026;SDS011;6580;42.680;23.324;2023-12-28T08:35:03;21.87;;;19.47;;
13026;SDS011;6580;42.680;23.324;2023-12-28T08:37:31;24.50;;;19.57;;
13026;SDS011;6580;42.680;23.324;2023-12-28T08:39:59;26.87;;;20.23;;
13026;SDS011;6580;42.680;23.324;2023-12-28T08:42:27;27.37;;;19.70;;
13026;SDS011;6580;42.680;23.324;2023-12-28T08:44:57;27.63;;;21.10;;
13026;SDS011;6580;42.680;23.324;2023-12-28T08:47:24;31.37;;;22.47;;
13026;SDS011;6580;42.680;23.324;2023-12-28T08:49:51;30.37;;;21.90;;
13026;SDS011;6580;42.680;23.324;2023-12-28T08:52:20;31.93;;;23.60;;
13026;SDS011;6580;42.680;23.324;2023-12-28T08:54:48;29.37;;;22.83;;
13026;SDS011;6580;42.680;23.324;2023-12-28T08:57:16;29.43;;;22.13;;
13026;SDS011;6580;42.680;23.324;2023-12-28T08:59:43;31.37;;;22.47;;
13026;SDS011;6580;42.680;23.324;2023-12-28T09:02:14;33.67;;;23.93;;
13026;SDS011;6580;42.680;23.324;2023-12-28T09:04:41;31.20;;;24.53;;
13026;SDS011;6580;42.680;23.324;2023-12-28T09:07:08;34.40;;;24.63;;
13026;SDS011;6580;42.680;23.324;2023-12-28T09:09:36;29.40;;;23.97;;
13026;SDS011;6580;42.680;23.324;2023-12-28T09:12:05;38.50;;;25.27;;
13026;SDS011;6580;42.680;23.324;2023-12-28T09:14:33;28.57;;;21.33;;
13026;SDS011;6580;42.680;23.324;2023-12-28T09:17:00;29.30;;;22.90;;
13026;SDS011;6580;42.680;23.324;2023-12-28T09:19:32;28.93;;;21.50;;
13026;SDS011;6580;42.680;23.324;2023-12-28T09:22:03;31.43;;;21.17;;
13026;SDS011;6580;42.680;23.324;2023-12-28T09:24:33;27.63;;;20.20;;
13026;SDS011;6580;42.680;23.324;2023-12-28T09:27:02;31.37;;;22.50;;
13026;SDS011;6580;42.680;23.324;2023-12-28T09:29:29;28.77;;;21.47;;
13026;SDS011;6580;42.680;23.324;2023-12-28T09:31:56;31.70;;;22.33;;
13026;SDS011;6580;42.680;23.324;2023-12-28T09:34:23;28.73;;;20.97;;
13026;SDS011;6580;42.680;23.324;2023-12-28T09:36:52;29.37;;;22.10;;
13026;SDS011;6580;42.680;23.324;2023-12-28T09:39:21;36.67;;;28.37;;
13026;SDS011;6580;42.680;23.324;2023-12-28T09:41:53;34.93;;;27.57;;
13026;SDS011;6580;42.680;23.324;2023-12-28T09:44:22;36.23;;;26.57;;
13026;SDS011;6580;42.680;23.324;2023-12-28T09:46:52;38.77;;;27.33;;
13026;SDS011;6580;42.680;23.324;2023-12-28T09:49:21;37.80;;;28.83;;
13026;SDS011;6580;42.680;23.324;2023-12-28T09:51:49;35.90;;;27.47;;
13026;SDS011;6580;42.680;23.324;2023-12-28T09:54:19;35.77;;;28.47;;
13026;SDS011;6580;42.680;23.324;2023-12-28T09:56:46;37.23;;;26.80;;
13026;SDS011;6580;42.680;23.324;2023-12-28T09:59:13;36.07;;;26.70;;
13026;SDS011;6580;42.680;23.324;2023-12-28T10:01:43;37.30;;;26.33;;
13026;SDS011;6580;42.680;23.324;2023-12-28T10:04:13;34.57;;;27.43;;
13026;SDS011;6580;42.680;23.324;2023-12-28T10:06:41;35.60;;;25.60;;
13026;SDS011;6580;42.680;23.324;2023-12-28T10:09:10;33.53;;;25.90;;
13026;SDS011;6580;42.680;23.324;2023-12-28T10:11:41;31.10;;;25.67;;
13026;SDS011;6580;42.680;23.324;2023-12-28T10:14:08;37.13;;;27.07;;
13026;SDS011;6580;42.680;23.324;2023-12-28T10:16:36;37.07;;;28.57;;
13026;SDS011;6580;42.680;23.324;2023-12-28T10:19:07;33.83;;;27.07;;
13026;SDS011;6580;42.680;23.324;2023-12-28T10:21:33;33.87;;;25.83;;
13026;SDS011;6580;42.680;23.324;2023-12-28T10:24:02;32.53;;;25.80;;
13026;SDS011;6580;42.680;23.324;2023-12-28T10:26:29;32.60;;;24.93;;
13026;SDS011;6580;42.680;23.324;2023-12-28T10:29:00;33.13;;;26.47;;
13026;SDS011;6580;42.680;23.324;2023-12-28T10:31:28;34.87;;;25.63;;
13026;SDS011;6580;42.680;23.324;2023-12-28T10:33:57;31.27;;;23.90;;
13026;SDS011;6580;42.680;23.324;2023-12-28T10:36:27;30.90;;;23.97;;
13026;SDS011;6580;42.680;23.324;2023-12-28T10:38:54;34.37;;;25.13;;
13026;SDS011;6580;42.680;23.324;2023-12-28T10:41:23;30.80;;;24.27;;
13026;SDS011;6580;42.680;23.324;2023-12-28T10:43:53;32.47;;;25.20;;
13026;SDS011;6580;42.680;23.324;2023-12-28T10:46:31;33.67;;;27.37;;
13026;SDS011;6580;42.680;23.324;2023-12-28T10:49:04;37.40;;;27.80;;
13026;SDS011;6580;42.680;23.324;2023-12-28T10:51:36;31.00;;;24.83;;
13026;SDS011;6580;42.680;23.324;2023-12-28T10:54:09;27.90;;;23.83;;
13026;SDS011;6580;42.680;23.324;2023-12-28T10:56:46;29.60;;;25.53;;
13026;SDS011;6580;42.680;23.324;2023-12-28T10:59:20;35.47;;;27.10;;
13026;SDS011;6580;42.680;23.324;2023-12-28T11:01:58;27.87;;;24.80;;
13026;SDS011;6580;42.680;23.324;2023-12-28T11:04:30;29.83;;;24.83;;
13026;SDS011;6580;42.680;23.324;2023-12-28T11:07:04;30.77;;;24.57;;
13026;SDS011;6580;42.680;23.324;2023-12-28T11:09:33;30.87;;;24.37;;
13026;SDS011;6580;42.680;23.324;2023-12-28T11:12:01;28.43;;;23.20;;
13026;SDS011;6580;42.680;23.324;2023-12-28T11:14:30;29.97;;;23.53;;
13026;SDS011;6580;42.680;23.324;2023-12-28T11:17:00;29.10;;;23.67;;
13026;SDS011;6580;42.680;23.324;2023-12-28T11:19:27;27.57;;;24.20;;
13026;SDS011;6580;42.680;23.324;2023-12-28T11:21:57;31.73;;;25.13;;
13026;SDS011;6580;42.680;23.324;2023-12-28T11:24:26;28.47;;;23.57;;
13026;SDS011;6580;42.680;23.324;2023-12-28T11:26:55;29.23;;;24.13;;
13026;SDS011;6580;42.680;23.324;2023-12-28T11:29:23;27.47;;;22.33;;
13026;SDS011;6580;42.680;23.324;2023-12-28T11:31:53;26.63;;;22.47;;
13026;SDS011;6580;42.680;23.324;2023-12-28T11:34:26;27.87;;;21.87;;
13026;SDS011;6580;42.680;23.324;2023-12-28T11:36:55;25.67;;;22.97;;
13026;SDS011;6580;42.680;23.324;2023-12-28T11:39:29;26.73;;;22.17;;
13026;SDS011;6580;42.680;23.324;2023-12-28T11:42:02;27.60;;;21.57;;
13026;SDS011;6580;42.680;23.324;2023-12-28T11:44:30;28.73;;;22.20;;
13026;SDS011;6580;42.680;23.324;2023-12-28T11:46:58;23.37;;;20.87;;
13026;SDS011;6580;42.680;23.324;2023-12-28T11:49:26;25.23;;;20.63;;
13026;SDS011;6580;42.680;23.324;2023-12-28T11:51:57;22.33;;;19.87;;
13026;SDS011;6580;42.680;23.324;2023-12-28T11:54:26;24.10;;;20.80;;
13026;SDS011;6580;42.680;23.324;2023-12-28T11:56:54;23.27;;;20.53;;
13026;SDS011;6580;42.680;23.324;2023-12-28T11:59:21;29.33;;;21.77;;
13026;SDS011;6580;42.680;23.324;2023-12-28T12:01:51;22.53;;;19.67;;
13026;SDS011;6580;42.680;23.324;2023-12-28T12:04:18;25.03;;;18.90;;
13026;SDS011;6580;42.680;23.324;2023-12-28T12:06:47;21.87;;;19.50;;
13026;SDS011;6580;42.680;23.324;2023-12-28T12:09:16;20.60;;;18.40;;
13026;SDS011;6580;42.680;23.324;2023-12-28T12:11:47;26.33;;;18.20;;
13026;SDS011;6580;42.680;23.324;2023-12-28T12:14:14;20.83;;;17.13;;
13026;SDS011;6580;42.680;23.324;2023-12-28T12:16:42;20.00;;;17.87;;
13026;SDS011;6580;42.680;23.324;2023-12-28T12:19:09;17.87;;;15.67;;
13026;SDS011;6580;42.680;23.324;2023-12-28T12:21:36;17.73;;;15.73;;
13026;SDS011;6580;42.680;23.324;2023-12-28T12:24:06;22.47;;;18.83;;
13026;SDS011;6580;42.680;23.324;2023-12-28T12:26:33;21.27;;;18.27;;
13026;SDS011;6580;42.680;23.324;2023-12-28T12:29:01;21.43;;;19.13;;
13026;SDS011;6580;42.680;23.324;2023-12-28T12:31:29;21.97;;;17.50;;
13026;SDS011;6580;42.680;23.324;2023-12-28T12:33:56;17.33;;;14.73;;
13026;SDS011;6580;42.680;23.324;2023-12-28T12:36:24;19.47;;;15.90;;
13026;SDS011;6580;42.680;23.324;2023-12-28T12:38:51;19.37;;;16.10;;
13026;SDS011;6580;42.680;23.324;2023-12-28T12:41:20;21.43;;;16.37;;
13026;SDS011;6580;42.680;23.324;2023-12-28T12:43:47;18.73;;;16.73;;
13026;SDS011;6580;42.680;23.324;2023-12-28T12:46:15;21.57;;;17.17;;
13026;SDS011;6580;42.680;23.324;2023-12-28T12:48:42;20.63;;;17.47;;
13026;SDS011;6580;42.680;23.324;2023-12-28T12:51:20;21.50;;;18.70;;
13026;SDS011;6580;42.680;23.324;2023-12-28T12:53:48;23.47;;;18.03;;
13026;SDS011;6580;42.680;23.324;2023-12-28T12:56:15;23.60;;;19.47;;
13026;SDS011;6580;42.680;23.324;2023-12-28T12:58:55;22.00;;;18.33;;
13026;SDS011;6580;42.680;23.324;2023-12-28T13:01:22;22.53;;;19.23;;
13026;SDS011;6580;42.680;23.324;2023-12-28T13:03:50;25.80;;;22.13;;
13026;SDS011;6580;42.680;23.324;2023-12-28T13:06:17;26.57;;;19.87;;
13026;SDS011;6580;42.680;23.324;2023-12-28T13:08:48;23.47;;;19.17;;
13026;SDS011;6580;42.680;23.324;2023-12-28T13:11:15;21.30;;;17.80;;
13026;SDS011;6580;42.680;23.324;2023-12-28T13:13:43;23.17;;;18.70;;
13026;SDS011;6580;42.680;23.324;2023-12-28T13:16:14;21.17;;;18.87;;
13026;SDS011;6580;42.680;23.324;2023-12-28T13:18:40;22.50;;;19.77;;
13026;SDS011;6580;42.680;23.324;2023-12-28T13:21:07;24.77;;;20.17;;
13026;SDS011;6580;42.680;23.324;2023-12-28T13:23:35;21.70;;;17.90;;
13026;SDS011;6580;42.680;23.324;2023-12-28T13:26:02;19.37;;;16.57;;
13026;SDS011;6580;42.680;23.324;2023-12-28T13:28:30;21.67;;;17.13;;
13026;SDS011;6580;42.680;23.324;2023-12-28T13:30:57;22.27;;;17.17;;
13026;SDS011;6580;42.680;23.324;2023-12-28T13:33:26;23.27;;;16.93;;
13026;SDS011;6580;42.680;23.324;2023-12-28T13:35:53;22.20;;;17.20;;
13026;SDS011;6580;42.680;23.324;2023-12-28T13:38:20;25.33;;;18.50;;
13026;SDS011;6580;42.680;23.324;2023-12-28T13:40:48;28.47;;;19.53;;
13026;SDS011;6580;42.680;23.324;2023-12-28T13:43:15;24.60;;;19.20;;
13026;SDS011;6580;42.680;23.324;2023-12-28T13:45:42;23.53;;;19.30;;
13026;SDS011;6580;42.680;23.324;2023-12-28T13:48:10;25.73;;;20.27;;
13026;SDS011;6580;42.680;23.324;2023-12-28T13:50:41;24.87;;;19.77;;
13026;SDS011;6580;42.680;23.324;2023-12-28T13:53:10;24.90;;;19.30;;
13026;SDS011;6580;42.680;23.324;2023-12-28T13:55:37;25.07;;;19.57;;
13026;SDS011;6580;42.680;23.324;2023-12-28T13:58:03;22.63;;;18.27;;
13026;SDS011;6580;42.680;23.324;2023-12-28T14:00:31;28.00;;;20.97;;
13026;SDS011;6580;42.680;23.324;2023-12-28T14:02:58;25.83;;;19.80;;
13026;SDS011;6580;42.680;23.324;2023-12-28T14:05:25;26.27;;;20.63;;
13026;SDS011;6580;42.680;23.324;2023-12-28T14:07:55;24.70;;;21.03;;
13026;SDS011;6580;42.680;23.324;2023-12-28T14:10:22;29.70;;;19.93;;
13026;SDS011;6580;42.680;23.324;2023-12-28T14:12:49;28.00;;;21.00;;
13026;SDS011;6580;42.680;23.324;2023-12-28T14:15:18;28.27;;;20.80;;
13026;SDS011;6580;42.680;23.324;2023-12-28T14:17:45;31.57;;;22.33;;
13026;SDS011;6580;42.680;23.324;2023-12-28T14:20:12;27.10;;;20.10;;
13026;SDS011;6580;42.680;23.324;2023-12-28T14:22:42;34.07;;;22.30;;
13026;SDS011;6580;42.680;23.324;2023-12-28T14:25:12;23.70;;;18.80;;
13026;SDS011;6580;42.680;23.324;2023-12-28T14:27:41;30.00;;;20.50;;
13026;SDS011;6580;42.680;23.324;2023-12-28T14:30:09;28.80;;;21.33;;